首页
METAR-TAF:

METAR-TAF

机场 :

基韋斯特, 佛罗里达州, 美国

纬度: 24-33-13N, 经度: 081-45-13W, 海拔: 1米

当前天气观测

该预报发布于31分钟前的20:53 UTC
风速16节,风向东转东南
温度 27°C
湿度 62%
气压 1017 hPa
能見度: 16.1公里
散云层高于2700英尺

METAR: KEYW 282053Z 11016KT 10SM SCT027 27/19 A3002 RMK AO2 SLP164 T02670194 56016 $

时间: 17:24 (21:24 UTC)

预报

该预报发布于3小时和36分钟前的17:48 UTC
预报有效从28日的 18点(UTC)到 29日的 18点(UTC)
风速12节,风向东转东南,有时为20节阵风
能見度: 10公里
少量云层高于2500英尺

TAF: KEYW 281748Z 2818/2918 11012G20KT P6SM FEW025

超过4000个机场的气象观测和天气预报(METAR&TAF报告)。

可查询的气象台以黄色和红色小点在地图上表示。

将鼠标移到小点上方,可查看气象台名称。

然后点击查看天气观测和预报。

如需切换地图:点击带黑十字的绿色按钮放大地图;点击带横线的绿色按钮缩小地图;或者点击绿色箭头查看邻近地区的地图。


METAR-TAF: